Home > Products > Valid Products > TAF

000
FTUS45 KCYS 301124
TAFCYS
TAF
KCYS 301124Z 3012/0112 36010KT 3SM -SN BR BKN018 OVC024
     FM301600 01016KT 5SM -SN OVC025
     FM010100 35009KT 3SM -SN BR OVC010=



000
FTUS45 KCYS 301124
TAFRWL
TAF
KRWL 301124Z 3012/0112 05007KT 1 1/2SM -SN BR OVC016
     FM301600 05011KT 4SM -SN BR OVC025
     FM302100 06014KT P6SM BKN030=



000
FTUS45 KCYS 301124
TAFLAR
TAF
KLAR 301124Z 3012/0112 36009KT 3SM -SN BR BKN025 OVC035
     FM301500 01013KT 4SM -SN BR OVC025
     FM302000 03013KT 5SM -SN BR OVC015=



000
FTUS45 KCYS 301019 AAC
TAFRWL
TAF AMD
KRWL 301019Z 3010/0106 05009KT 1SM -SN BR OVC011
     FM301300 05011KT 5SM -SN BR OVC025
     FM301900 06014KT P6SM BKN035=



000
FTUS45 KCYS 301019 AAC
TAFRWL
TAF AMD
KRWL 301019Z 3010/0106 05009KT 1SM -SN BR OVC011
     FM301300 05011KT 5SM -SN BR OVC025
     FM301900 06014KT P6SM BKN035=



000
FTUS45 KCYS 301019 AAD
TAFCYS
TAF AMD
KCYS 301019Z 3010/0106 01009KT 5SM -SN BR BKN004 OVC035
     FM301200 36014KT 3SM -SN BR OVC015
     FM302000 01016KT 5SM -SN OVC025=



000
FTUS45 KCYS 300839 AAC
TAFCYS
TAF AMD
KCYS 300839Z 3009/0106 36009KT 1 1/2SM -SN BR FEW005 OVC022
     FM301200 36014KT 3SM -SN BR OVC025
     FM302000 01016KT 5SM -SN OVC025=



000
FTUS45 KCYS 300726 AAB
TAFRWL
TAF AMD
KRWL 300726Z 3007/0106 05009KT 3SM -SN BR FEW007 OVC035
     FM301300 05011KT 5SM -SN BR OVC025
     FM301900 06014KT P6SM BKN035=



000
FTUS45 KCYS 300702 AAA
TAFRWL
TAF AMD
KRWL 300702Z 3007/0106 05009KT 2SM -SN BR BKN007 OVC020
     FM301300 05011KT 5SM -SN BR OVC025
     FM301900 06014KT P6SM BKN035=



000
FTUS45 KCYS 300701 AAA
TAFCYS
TAF AMD
KCYS 300701Z 3007/0106 36009KT 3SM -SN BR FEW005 OVC040
     FM301500 36014KT 4SM -SN BR OVC025
     FM302000 01016KT 5SM -SN OVC025=



000
FTUS45 KCYS 300701 AAA
TAFCYS
TAF AMD
KCYS 300701Z 3007/0106 36009KT 3SM -SN BR FEW005 OVC040
     FM301500 36014KT 4SM -SN BR OVC025
     FM302000 01016KT 5SM -SN OVC025=



000
FTUS45 KCYS 300701 AAA
TAFLAR
TAF AMD
KLAR 300701Z 3007/0106 01004KT 4SM -SN BR OVC025
     FM301500 01013KT 4SM -SN BR OVC025
     FM302000 03013KT 5SM -SN BR OVC015=



000
FTUS45 KCYS 300701 AAA
TAFLAR
TAF AMD
KLAR 300701Z 3007/0106 01004KT 4SM -SN BR OVC025
     FM301500 01013KT 4SM -SN BR OVC025
     FM302000 03013KT 5SM -SN BR OVC015=



000
FTUS45 KCYS 300608 CCB
TAFRWL
TAF COR
KRWL 300608Z 3006/0106 05009KT P6SM -SN FEW007 OVC030
     FM301300 05011KT 5SM -SN BR OVC025
     FM301900 06014KT P6SM BKN035=



000
FTUS45 KCYS 300608 CCB
TAFRWL
TAF COR
KRWL 300608Z 3006/0106 05009KT P6SM -SN FEW007 OVC030
     FM301300 05011KT 5SM -SN BR OVC025
     FM301900 06014KT P6SM BKN035=



000
FTUS45 KCYS 300607 CCA
TAFLAR
TAF COR
KLAR 300607Z 3006/0106 03006KT 2SM -SN BR OVC035
     FM301500 01013KT 4SM -SN BR OVC025
     FM302000 03013KT 5SM -SN BR OVC015=



000
FTUS45 KCYS 300607 CCA
TAFLAR
TAF COR
KLAR 300607Z 3006/0106 03006KT 2SM -SN BR OVC035
     FM301500 01013KT 4SM -SN BR OVC025
     FM302000 03013KT 5SM -SN BR OVC015=



000
FTUS45 KCYS 300606 CCB
TAFCYS
TAF COR
KCYS 300606Z 3006/0106 36007KT 3SM -SN BR FEW005 OVC026
     FM301500 36014KT 4SM -SN BR OVC015
     FM302000 01016KT 5SM -SN OVC025=



000
FTUS45 KCYS 300606 CCB
TAFCYS
TAF COR
KCYS 300606Z 3006/0106 36007KT 3SM -SN BR FEW005 OVC026
     FM301500 36014KT 4SM -SN BR OVC015
     FM302000 01016KT 5SM -SN OVC025=



000
FTUS45 KCYS 300523 CCA
TAFRWL
TAF COR
KRWL 300523Z 3006/0106 05011KT 4SM -SN BR FEW005 OVC020
     FM301300 05011KT 5SM -SN BR OVC025
     FM301900 06014KT P6SM BKN035=



000
FTUS45 KCYS 300522
TAFCYS
TAF
KCYS 300522Z 3006/0106 01006KT 3SM -SN BR SCT005 BKN016
     FM301500 36014KT 4SM -SN BR OVC015
     FM302000 01016KT 5SM -SN OVC025=



000
FTUS45 KCYS 300522
TAFLAR
TAF
KLAR 300522Z 3006/0106 36006KT 2SM -SN BR OVC020
     FM301500 01013KT 4SM -SN BR OVC025
     FM302000 03013KT 5SM -SN BR OVC015=



000
FTUS45 KCYS 300522
TAFRWL
TAF
KRWL 300522Z 3006/0106 05011KT 4SM -SN BR FEW005 OVC016
     FM301300 05011KT 5SM -SN BR OVC025
     FM301900 06014KT P6SM BKN035=



000
FTUS45 KCYS 292348 CCA
TAFLAR
TAF COR
KLAR 292348Z 3000/3024 12011KT 1 1/2SM -SN BR BKN007 OVC012
      TEMPO 3000/3002 1/2SM SN FZFG OVC007
     FM300600 36008KT 1SM -SN BR OVC008
     FM301500 01012KT 2SM -SN BR OVC015
     FM302000 03013KT 5SM -SN BR OVC025=



000
FTUS45 KCYS 292321
TAFLAR
TAF
KLAR 292321Z 3000/3024 12011KT 1 1/2SM -SN BR BKN016 OVC025
     FM300600 36008KT 1SM -SN BR OVC008
     FM301500 01012KT 2SM -SN BR OVC015
     FM302000 03013KT 5SM -SN BR OVC025=



000
FTUS45 KCYS 292321
TAFRWL
TAF
KRWL 292321Z 3000/3024 05014G23KT 4SM -SN BR BKN015 OVC025
      TEMPO 3000/3002 3/4SM -SN BR BKN009
     FM300600 03008KT 1SM -SN BR OVC015
     FM301500 05011KT 5SM -SN BR OVC025
     FM302000 06014KT P6SM BKN035=



000
FTUS45 KCYS 292321
TAFCYS
TAF
KCYS 292321Z 3000/3024 10008KT 2SM -SN BR OVC012
      TEMPO 3000/3004 1/2SM SN FZFG VV003
     FM300600 36010KT 3/4SM -SN BR OVC008
     FM301500 36014KT 4SM -SN BR OVC015
     FM302000 01018KT 5SM -SN OVC025=



000
FTUS45 KCYS 292101 AAA
TAFLAR
TAF AMD
KLAR 292101Z 2921/3018 12011KT 1/2SM SN FZFG OVC016
      TEMPO 2921/2924 2SM -SN BR OVC009
     FM300100 05008KT 4SM -SN BR OVC015
     FM300600 36008KT 1SM -SN BR OVC008
     FM301500 01012KT 2SM -SN BR OVC015=



000
FTUS45 KCYS 292101 AAA
TAFLAR
TAF AMD
KLAR 292101Z 2921/3018 12011KT 1/2SM SN FZFG OVC016
      TEMPO 2921/2924 2SM -SN BR OVC009
     FM300100 05008KT 4SM -SN BR OVC015
     FM300600 36008KT 1SM -SN BR OVC008
     FM301500 01012KT 2SM -SN BR OVC015=



000
FTUS45 KCYS 291915 AAA
TAFRWL
TAF AMD
KRWL 291915Z 2919/3018 05012KT P6SM VCSH OVC020
      TEMPO 2920/2924 1 1/2SM -SN OVC012
     FM300000 08009KT 3SM -SN BR OVC015
     FM300600 03008KT 1SM -SN BR OVC015
     FM301500 05011KT 5SM -SN BR OVC025=



000
FTUS45 KCYS 291915 AAA
TAFRWL
TAF AMD
KRWL 291915Z 2919/3018 05012KT P6SM VCSH OVC020
      TEMPO 2920/2924 1 1/2SM -SN OVC012
     FM300000 08009KT 3SM -SN BR OVC015
     FM300600 03008KT 1SM -SN BR OVC015
     FM301500 05011KT 5SM -SN BR OVC025=



000
FTUS45 KCYS 291720
TAFLAR
TAF
KLAR 291720Z 2918/3018 14015KT P6SM OVC012
      TEMPO 2918/2920 2SM -SN BR OVC008
     FM292000 12015KT 1SM -SN BR OVC012
     FM300100 05008KT 4SM -SN BR OVC015
     FM300600 36008KT 1SM -SN BR OVC008
     FM301500 01012KT 2SM -SN BR OVC015=



000
FTUS45 KCYS 291720
TAFCYS
TAF
KCYS 291720Z 2918/3018 11008KT 2SM -SN BR OVC012
      TEMPO 2918/2921 3/4SM -SN BR OVC004
     FM292100 10008KT 1SM -SN BR OVC012
     FM300100 35006KT 4SM -SN BR OVC015
     FM300600 36010KT 3/4SM -SN BR OVC008
     FM301500 36014KT 4SM -SN BR OVC015=



000
FTUS45 KCYS 291720
TAFRWL
TAF
KRWL 291720Z 2918/3018 05012KT P6SM OVC017
      TEMPO 2918/2920 4SM -SN OVC012
     FM292000 07012KT P6SM OVC025
      TEMPO 2920/2924 2SM -SN OVC015
     FM300000 08009KT 5SM -SN BR OVC015
     FM300600 03008KT 1SM -SN BR OVC015
     FM301500 05011KT 5SM -SN BR OVC025=



000
FTUS45 KCYS 291720
TAFLAR
TAF
KLAR 291720Z 2918/3018 14015KT P6SM OVC012
      TEMPO 2918/2920 2SM -SN BR OVC008
     FM292000 12015KT 1SM -SN BR OVC012
     FM300100 05008KT 4SM -SN BR OVC015
     FM300600 36008KT 1SM -SN BR OVC008
     FM301500 01012KT 2SM -SN BR OVC015=



000
FTUS45 KCYS 291720
TAFCYS
TAF
KCYS 291720Z 2918/3018 11008KT 2SM -SN BR OVC012
      TEMPO 2918/2921 3/4SM -SN BR OVC004
     FM292100 10008KT 1SM -SN BR OVC012
     FM300100 35006KT 4SM -SN BR OVC015
     FM300600 36010KT 3/4SM -SN BR OVC008
     FM301500 36014KT 4SM -SN BR OVC015=



000
FTUS45 KCYS 291720
TAFRWL
TAF
KRWL 291720Z 2918/3018 05012KT P6SM OVC017
      TEMPO 2918/2920 4SM -SN OVC012
     FM292000 07012KT P6SM OVC025
      TEMPO 2920/2924 2SM -SN OVC015
     FM300000 08009KT 5SM -SN BR OVC015
     FM300600 03008KT 1SM -SN BR OVC015
     FM301500 05011KT 5SM -SN BR OVC025=



000
FTUS45 KCYS 291607 AAB
TAFCYS
TAF AMD
KCYS 291607Z 2916/3012 11011KT 1 1/2SM BR OVC003
     FM291800 11010KT 1SM -SN BR OVC008
     FM300100 01009KT 2SM -SN OVC005=



000
FTUS45 KCYS 291414 AAA
TAFRWL
TAF AMD
KRWL 291414Z 2914/3012 05014KT P6SM OVC008
     FM291600 05013KT P6SM OVC012
     FM291800 07012KT P6SM VCSH BKN025
     FM292200 07012KT 3SM -SN BR OVC020=



000
FTUS45 KCYS 291413 AAB
TAFCYS
TAF AMD
KCYS 291413Z 2914/3012 12008KT 1/4SM FZFG VV002
      TEMPO 2914/2916 1SM BR VV008
     FM291600 11011KT 1SM -SN OVC002
     FM300100 01009KT 2SM -SN OVC005=



000
FTUS45 KCYS 291249 AAA
TAFCYS
TAF AMD
KCYS 291249Z 2913/3012 12011KT P6SM OVC003
      TEMPO 2913/2914 1/4SM FG
     FM291500 11011KT 1SM -SN OVC002
     FM300100 01009KT 2SM -SN OVC005=



000
FTUS45 KCYS 291155 CCB
TAFCYS
TAF COR
KCYS 291155Z 2912/3012 12011KT P6SM OVC003
     FM291500 11011KT 1SM -SN OVC002
     FM300100 01009KT 2SM -SN OVC005=



000
FTUS45 KCYS 291155 CCB
TAFCYS
TAF COR
KCYS 291155Z 2912/3012 12011KT P6SM OVC003
     FM291500 11011KT 1SM -SN OVC002
     FM300100 01009KT 2SM -SN OVC005=



000
FTUS45 KCYS 291149 CCA
TAFCYS
TAF COR
KCYS 291149Z 2912/3012 12009KT P6SM OVC003
     FM291600 10009KT 1SM -SN OVC002
     FM300100 01009KT 2SM -SN OVC005=



000
FTUS45 KCYS 291149 CCA
TAFCYS
TAF COR
KCYS 291149Z 2912/3012 12009KT P6SM OVC003
     FM291600 10009KT 1SM -SN OVC002
     FM300100 01009KT 2SM -SN OVC005=



000
FTUS45 KCYS 291120
TAFCYS
TAF
KCYS 291120Z 2912/3012 12009KT 3SM -FZDZ OVC003
     FM291600 10009KT 1SM -SN OVC002
     FM300100 01009KT 2SM -SN OVC005=



000
FTUS45 KCYS 291120
TAFLAR
TAF
KLAR 291120Z 2912/3012 13015KT P6SM VCSH OVC012
     FM292200 08012KT 2SM -SN OVC006=



000
FTUS45 KCYS 291120
TAFCYS
TAF
KCYS 291120Z 2912/3012 12009KT 3SM -FZDZ OVC003
     FM291600 10009KT 1SM -SN OVC002
     FM300100 01009KT 2SM -SN OVC005=



000
FTUS45 KCYS 291120
TAFRWL
TAF
KRWL 291120Z 2912/3012 05012KT P6SM OVC008
     FM291400 06009KT P6SM OVC011
     FM291800 07012KT P6SM VCSH BKN025
     FM292200 07012KT 3SM -SN BR OVC020=



000
FTUS45 KCYS 291120
TAFRWL
TAF
KRWL 291120Z 2912/3012 05012KT P6SM OVC008
     FM291400 06009KT P6SM OVC011
     FM291800 07012KT P6SM VCSH BKN025
     FM292200 07012KT 3SM -SN BR OVC020=



000
FTUS45 KCYS 291041 AAC
TAFCYS
TAF AMD
KCYS 291041Z 2911/3006 13009KT 2SM -FZDZ BR OVC003
     FM291300 14009KT 1SM -SN OVC002
     FM291900 08011KT 2SM -SN OVC003=



000
FTUS45 KCYS 290917 AAB
TAFCYS
TAF AMD
KCYS 290917Z 2909/3006 13009KT 1 1/2SM -SN BR OVC002
     FM291100 14009KT 1SM -SN OVC002
     FM291900 08011KT 2SM -SN OVC003=



000
FTUS45 KCYS 290800 AAA
TAFRWL
TAF AMD
KRWL 290800Z 2908/3006 05012KT P6SM OVC005
     FM291400 06009KT 4SM -SN BR BKN007 BKN015
     FM292200 07013KT P6SM VCSH BKN025=



000
FTUS45 KCYS 290533 CCA
TAFLAR
TAF COR
KLAR 290533Z 2906/3006 14015KT P6SM OVC008
     FM291200 11012KT 1SM -SN OVC003
     FM292300 08014KT 2SM -SN OVC003=



000
FTUS45 KCYS 290520
TAFLAR
TAF
KLAR 290520Z 2906/3006 14012KT P6SM OVC010
     FM290800 14012KT P6SM OVC008
     FM291200 11012KT 1SM -SN OVC003
     FM292300 08014KT 2SM -SN OVC003=



000
FTUS45 KCYS 290520
TAFRWL
TAF
KRWL 290520Z 2906/3006 05012KT P6SM OVC008
     FM291400 06009KT 4SM -SN BR BKN007 BKN015
     FM292200 07013KT P6SM VCSH BKN025=



000
FTUS45 KCYS 290520
TAFCYS
TAF
KCYS 290520Z 2906/3006 16008KT P6SM OVC004
     FM291100 12009KT 2SM -SN OVC004
     FM291500 12010KT 3/4SM -SN VV001
     FM291900 08011KT 2SM -SN OVC003=



000
FTUS45 KCYS 290319 AAB
TAFCYS
TAF AMD
KCYS 290319Z 2903/2924 16006KT P6SM -SN BKN007
     FM290800 12008KT 2SM -SN BR BKN007 OVC012
     FM291100 12009KT 3/4SM -SN OVC001
     FM291500 12010KT 1/4SM +SN FG VV001
     FM291900 08011KT 1SM -SN OVC003=



000
FTUS45 KCYS 290143 AAA
TAFLAR
TAF AMD
KLAR 290143Z 2902/2924 12014KT P6SM -SN OVC025
      TEMPO 2902/2903 1/2SM SN OVC009
     FM290400 14019G27KT P6SM VCSH OVC015
     FM290900 14016KT 1SM -SN BR OVC008
     FM291200 11012KT 1/2SM SN OVC003
     FM292300 08014KT 2SM -SN OVC003=



000
FTUS45 KCYS 282335
TAFCYS
TAF
KCYS 282335Z 2900/2924 14011KT P6SM -SN SCT011 BKN020
     FM290200 12008KT 2SM -SN BR BKN007 OVC012
     FM291100 12009KT 3/4SM -SN OVC001
     FM291500 12010KT 1/4SM +SN FG VV001
     FM291900 08011KT 1SM -SN OVC003=



000
FTUS45 KCYS 282335
TAFRWL
TAF
KRWL 282335Z 2900/2924 07012G24KT P6SM -SN SCT009 BKN014
      TEMPO 2900/2903 1SM -SN BR SCT005 BKN009
     FM290300 07013KT P6SM VCSH BKN025
     FM290400 08012KT P6SM VCSH BKN035
     FM291300 06009KT 4SM -SN BR BKN007 BKN015
     FM292300 07013KT P6SM VCSH BKN025=



000
FTUS45 KCYS 282335
TAFLAR
TAF
KLAR 282335Z 2900/2924 12014KT P6SM -SN OVC025
     FM290400 14019G27KT P6SM VCSH OVC015
     FM290900 14016KT 1SM -SN BR OVC008
     FM291200 11012KT 1/2SM SN OVC003
     FM292300 08014KT 2SM -SN OVC003=



000
FTUS45 KCYS 282042 AAB
TAFLAR
TAF AMD
KLAR 282042Z 2821/2918 13012KT 1SM -SN OVC015
     FM290000 11015KT P6SM VCSH OVC015
     FM290600 12015G23KT P6SM VCSH OVC008
     FM290900 13014KT 2SM -SN OVC003
     FM291700 10012KT 3SM -SN OVC008=



000
FTUS45 KCYS 282041 AAA
TAFRWL
TAF AMD
KRWL 282041Z 2821/2918 07014G25KT 1SM BR VCSH BKN020
     FM290000 07014KT P6SM BKN025
     FM290900 06011KT P6SM VCSH BKN010
     FM291200 06011KT P6SM VCSH BKN010=



000
FTUS45 KCYS 282041 AAA
TAFRWL
TAF AMD
KRWL 282041Z 2821/2918 07014G25KT 1SM BR VCSH BKN020
     FM290000 07014KT P6SM BKN025
     FM290900 06011KT P6SM VCSH BKN010
     FM291200 06011KT P6SM VCSH BKN010=



000
FTUS45 KCYS 281904 AAA
TAFLAR
TAF AMD
KLAR 281904Z 2819/2918 09012KT 1SM -SN OVC015
     FM282100 11015KT P6SM VCSH OVC015
     FM290600 12015G23KT P6SM VCSH OVC008
     FM290900 13014KT 2SM -SN OVC003
     FM291700 10012KT 3SM -SN OVC008=



000
FTUS45 KCYS 281828 CCB
TAFCYS
TAF COR
KCYS 281828Z 2818/2918 09008KT 6SM -SNRA BKN015 OVC025
     FM281900 11011KT 2SM -SN BR OVC007
     FM290600 09010KT 1SM -SN VV002
     FM291100 12007KT 1/2SM SN FG VV001
     FM291400 12007KT 1/4SM +SN VV001=



000
FTUS45 KCYS 281744 CCA
TAFLAR
TAF COR
KLAR 281744Z 2818/2918 09012KT 4SM -SN OVC015
     FM282100 11015KT P6SM VCSH OVC015
     FM290600 12015G23KT P6SM VCSH OVC008
     FM290900 13014KT 2SM -SN OVC003
     FM291700 10012KT 3SM -SN OVC008=



000
FTUS45 KCYS 281720
TAFLAR
TAF
KLAR 281720Z 2818/2918 11020G28KT 4SM -SN OVC015
     FM282100 11015KT P6SM VCSH OVC015
     FM290600 12015G23KT P6SM VCSH OVC008
     FM290900 13014KT 2SM -SN OVC003
     FM291700 10012KT 3SM -SN OVC008=



000
FTUS45 KCYS 281720
TAFCYS
TAF
KCYS 281720Z 2818/2918 09008KT 6SM -SNRA BKN015 OVC025
     FM282100 11011KT 2SM -SN BR OVC007
     FM290600 09010KT 1SM -SN VV002
     FM291100 12007KT 1/2SM SN FG VV001
     FM291400 12007KT 1/4SM +SN VV001=



000
FTUS45 KCYS 281720
TAFRWL
TAF
KRWL 281720Z 2818/2918 07014G25KT P6SM BKN020
     FM290000 07014KT P6SM BKN025
     FM290900 06011KT P6SM VCSH BKN010
     FM291200 06011KT P6SM VCSH BKN010=



000
FTUS45 KCYS 281635 AAC
TAFCYS
TAF AMD
KCYS 281635Z 2817/2912 04007KT P6SM SCT009 OVC020
     FM282000 10009KT 4SM -RA OVC007
     FM290300 10010KT 2SM -SN OVC007=



000
FTUS45 KCYS 281446 AAB
TAFCYS
TAF AMD
KCYS 281446Z 2815/2912 04007KT P6SM BKN009 OVC020
     FM282000 10009KT 4SM -RA OVC007
     FM290300 10010KT 2SM -SN OVC007=



000
FTUS45 KCYS 281446 AAB
TAFCYS
TAF AMD
KCYS 281446Z 2815/2912 04007KT P6SM BKN009 OVC020
     FM282000 10009KT 4SM -RA OVC007
     FM290300 10010KT 2SM -SN OVC007=



000
FTUS45 KCYS 281358 AAA
TAFRWL
TAF AMD
KRWL 281358Z 2814/2912 06012KT P6SM OVC020
     FM282000 06014KT 5SM -RA BR OVC015
     FM290200 07013KT 2SM -SN OVC010=



000
FTUS45 KCYS 281124
TAFLAR
TAF
KLAR 281124Z 2812/2912 07004KT P6SM OVC017
     FM281500 11006KT P6SM OVC013
     FM281900 13016G22KT 2SM -SN BR OVC007=



000
FTUS45 KCYS 281124
TAFCYS
TAF
KCYS 281124Z 2812/2912 36005KT P6SM OVC029
     FM281500 04007KT P6SM OVC020
     FM282000 10009KT 4SM -RA OVC010
     FM290300 10010KT 2SM -SN OVC007=



000
FTUS45 KCYS 281124
TAFRWL
TAF
KRWL 281124Z 2812/2912 06005KT P6SM FEW030
     FM282000 06014KT 5SM -RA BR OVC015
     FM290200 07013KT 2SM -SN OVC010=



000
FTUS45 KCYS 281032 AAC
TAFCYS
TAF AMD
KCYS 281032Z 2811/2906 34005KT P6SM OVC030
     FM281500 02007KT P6SM BKN020
     FM282100 10009KT 4SM -RA OVC007=



000
FTUS45 KCYS 281029 AAB
TAFLAR
TAF AMD
KLAR 281029Z 2810/2906 VRB03KT P6SM OVC020
     FM281400 14006KT P6SM OVC015
     FM281900 13016KT 2SM -SN BR OVC007=



000
FTUS45 KCYS 280939 AAB
TAFCYS
TAF AMD
KCYS 280939Z 2810/2906 34005KT P6SM BKN015 OVC030
     FM281500 02007KT P6SM BKN010
     FM282100 10009KT 4SM -RA OVC007=



000
FTUS45 KCYS 280800 AAA
TAFLAR
TAF AMD
KLAR 280800Z 2808/2906 VRB03KT P6SM OVC020
     FM281000 12005KT 1SM BR BKN005
     FM281400 14006KT 4SM BR OVC015
     FM281900 13016KT 2SM -SN BR OVC007=



000
FTUS45 KCYS 280800 AAA
TAFLAR
TAF AMD
KLAR 280800Z 2808/2906 VRB03KT P6SM OVC020
     FM281000 12005KT 1SM BR BKN005
     FM281400 14006KT 4SM BR OVC015
     FM281900 13016KT 2SM -SN BR OVC007=



000
FTUS45 KCYS 280759 AAB
TAFCYS
TAF AMD
KCYS 280759Z 2808/2906 35005KT P6SM OVC008
     FM281000 36008KT 4SM BR BKN010
     FM281200 35007KT 2SM BR BKN003
     FM281500 02007KT P6SM BKN008
     FM282100 10009KT 4SM -RA OVC007=



000
FTUS45 KCYS 280659 AAA
TAFCYS
TAF AMD
KCYS 280659Z 2807/2906 35012G18KT P6SM OVC007
     FM281000 36012KT 4SM BR SCT003 BKN010
     FM281200 35007KT 2SM BR BKN003
     FM281500 02007KT P6SM BKN008
     FM282100 10009KT 4SM -RA OVC007=



000
FTUS45 KCYS 280659 AAA
TAFCYS
TAF AMD
KCYS 280659Z 2807/2906 35012G18KT P6SM OVC007
     FM281000 36012KT 4SM BR SCT003 BKN010
     FM281200 35007KT 2SM BR BKN003
     FM281500 02007KT P6SM BKN008
     FM282100 10009KT 4SM -RA OVC007=



000
FTUS45 KCYS 280521
TAFCYS
TAF
KCYS 280521Z 2806/2906 35008KT P6SM SKC
     FM281000 36007KT 4SM BR SCT003 BKN010
     FM281200 35007KT 2SM BR BKN003
     FM281500 02007KT P6SM BKN008
     FM282100 10009KT 4SM -RA OVC007=



000
FTUS45 KCYS 280521
TAFLAR
TAF
KLAR 280521Z 2806/2906 02004KT P6SM OVC015
     FM281000 12005KT 1/2SM FG BKN002
     FM281200 14006KT 1SM BR BKN003
     FM281400 14006KT 4SM BR OVC015
     FM281900 13016KT 2SM -SN BR OVC007=



000
FTUS45 KCYS 280521
TAFRWL
TAF
KRWL 280521Z 2806/2906 06005KT P6SM SCT035 OVC100
     FM281200 06009KT P6SM SCT040
     FM282000 06014KT 5SM -RA BR OVC015=



000
FTUS45 KCYS 280406 AAA
TAFLAR
TAF AMD
KLAR 280406Z 2804/2824 35007KT P6SM BKN010
     FM280900 13005KT 1/2SM FG BKN002
     FM281200 14006KT 1SM BR BKN003
     FM281400 14006KT 4SM BR OVC015
     FM281900 13016KT 2SM -SN BR OVC007=



000
FTUS45 KCYS 272350
TAFCYS
TAF
KCYS 272350Z 2800/2824 33014G28KT P6SM SCT020 BKN050
     FM280200 33009KT P6SM BKN050
     FM281000 32007KT 4SM BR SCT003 BKN010
     FM281200 35007KT 2SM BR BKN003
     FM281500 02007KT P6SM BKN008
     FM282100 11009KT 4SM -RA OVC007=



000
FTUS45 KCYS 272350
TAFRWL
TAF
KRWL 272350Z 2800/2824 36007KT P6SM SCT025 BKN050
     FM280800 VRB05KT 2SM BR SCT004
     FM281200 06009KT P6SM SCT040
     FM282000 06014KT 5SM -RA BR OVC015=



000
FTUS45 KCYS 272350
TAFLAR
TAF
KLAR 272350Z 2800/2824 34015G25KT P6SM BKN040
     FM280200 31009KT P6SM SCT140
     FM280700 13005KT 1/2SM FG BKN002
     FM281200 14006KT 1SM BR BKN003
     FM281400 14006KT 4SM BR OVC015
     FM281900 13016KT 2SM -SN BR OVC007=



000
FTUS45 KCYS 271728 CCA
TAFLAR
TAF COR
KLAR 271728Z 2718/2818 34015G25KT P6SM BKN040
     FM280200 31009KT P6SM SCT140
     FM280500 33007KT 3SM BR SCT005 BKN100
     FM281700 14004KT 1SM BR BKN003=



000
FTUS45 KCYS 271720
TAFRWL
TAF
KRWL 271720Z 2718/2818 31006KT P6SM BKN020 OVC040
     FM271900 34007KT P6SM BKN050
     FM280000 36007KT P6SM SCT070
     FM281500 06009KT P6SM SCT040=



000
FTUS45 KCYS 271720
TAFCYS
TAF
KCYS 271720Z 2718/2818 33014G28KT P6SM SCT020 BKN050
     FM280200 33009KT P6SM BKN050
     FM281000 32007KT 4SM BR SCT003 BKN010
     FM281200 35007KT 2SM BR BKN003
     FM281500 02007KT P6SM BKN008=



000
FTUS45 KCYS 271720
TAFLAR
TAF
KLAR 271720Z 2718/2818 31013KT P6SM BKN040
     FM280200 31009KT P6SM SCT140
     FM280500 33007KT 3SM BR SCT005 BKN100
     FM281700 14004KT 1SM BR BKN003=



000
FTUS45 KCYS 271614 AAA
TAFRWL
TAF AMD
KRWL 271614Z 2716/2812 31007KT P6SM BKN020 BKN050
     FM271900 30013KT P6SM BKN050
     FM280000 04007KT P6SM SCT100=



000
FTUS45 KCYS 271614 AAA
TAFRWL
TAF AMD
KRWL 271614Z 2716/2812 31007KT P6SM BKN020 BKN050
     FM271900 30013KT P6SM BKN050
     FM280000 04007KT P6SM SCT100=



000
FTUS45 KCYS 271528 AAB
TAFLAR
TAF AMD
KLAR 271528Z 2715/2812 34009KT P6SM SCT002 OVC045
     FM271700 32017KT P6SM BKN070
     FM280000 33014KT P6SM SCT100
     FM280200 19005KT P6SM SCT090=



000
FTUS45 KCYS 271528 AAB
TAFLAR
TAF AMD
KLAR 271528Z 2715/2812 34009KT P6SM SCT002 OVC045
     FM271700 32017KT P6SM BKN070
     FM280000 33014KT P6SM SCT100
     FM280200 19005KT P6SM SCT090=



000
FTUS45 KCYS 271505 AAA
TAFLAR
TAF AMD
KLAR 271505Z 2715/2812 31005KT 1/4SM FZFG VV001
     FM271700 32017KT P6SM BKN070
     FM280000 33014KT P6SM SCT100
     FM280200 19005KT P6SM SCT090=



    US Dept of Commerce
    National Oceanic and Atmospheric Administration
    National Weather Service
    1325 East West Highway
    Silver Spring, MD 20910
    Page Author: NWS Internet Services Team
Disclaimer
Information Quality
Credits
Glossary
Privacy Policy
Freedom of Information Act (FOIA)
About Us
Career Opportunities